createdAt,value
2022-12-12T00:02:18.560Z,83.77
2022-12-12T00:05:20.564Z,83.83
2022-12-12T00:08:22.431Z,83.99
2022-12-12T00:11:25.455Z,83.97
2022-12-12T00:14:27.245Z,83.86
2022-12-12T00:17:28.988Z,84.19
2022-12-12T00:20:30.961Z,84.34
2022-12-12T00:23:32.745Z,84.25
2022-12-12T00:26:35.284Z,84.38
2022-12-12T00:29:37.012Z,84.37
2022-12-12T00:32:38.709Z,84.95
2022-12-12T00:35:40.311Z,84.83
2022-12-12T00:38:41.958Z,84.93
2022-12-12T00:41:44.003Z,85.01
2022-12-12T00:44:45.701Z,85.01
2022-12-12T00:47:47.411Z,85.06
2022-12-12T00:50:49.205Z,85.06
2022-12-12T00:53:50.905Z,84.57
2022-12-12T00:56:52.607Z,84.95
2022-12-12T00:59:58.263Z,85.08
2022-12-12T01:03:00.038Z,84.76
2022-12-12T01:06:02.095Z,84.74
2022-12-12T01:09:04.195Z,84.59
2022-12-12T01:12:06.052Z,84.36
2022-12-12T01:15:09.325Z,84.79
2022-12-12T01:18:11.188Z,84.80
2022-12-12T01:21:15.495Z,84.31
2022-12-12T01:24:17.161Z,84.43
2022-12-12T01:27:18.860Z,84.41
2022-12-12T01:30:22.351Z,84.40
2022-12-12T01:33:24.206Z,84.49
2022-12-12T01:36:25.814Z,84.27
2022-12-12T01:39:27.499Z,84.23
2022-12-12T01:42:29.732Z,84.45
2022-12-12T01:45:59.725Z,84.15
2022-12-12T01:49:06.467Z,84.56
2022-12-12T01:52:16.611Z,84.11
2022-12-12T01:55:22.756Z,84.49
2022-12-12T01:58:25.133Z,85.10
2022-12-12T02:01:27.101Z,84.89
2022-12-12T02:04:28.940Z,84.99
2022-12-12T02:07:30.757Z,84.78
2022-12-12T02:10:32.313Z,85.13
2022-12-12T02:13:34.961Z,85.18
2022-12-12T02:17:26.637Z,85.54
2022-12-12T02:20:47.198Z,85.42
2022-12-12T02:24:04.027Z,85.48
2022-12-12T02:27:50.332Z,85.73
2022-12-12T02:31:37.082Z,85.83
2022-12-12T02:34:50.515Z,85.67
2022-12-12T02:37:59.567Z,85.53
2022-12-12T02:41:07.550Z,85.54
2022-12-12T02:44:26.664Z,85.42
2022-12-12T02:47:31.028Z,85.13
2022-12-12T02:50:33.199Z,85.43
2022-12-12T02:53:35.085Z,85.39
2022-12-12T02:56:50.731Z,85.26
2022-12-12T03:00:07.525Z,85.20
2022-12-12T03:03:52.678Z,85.33
2022-12-12T03:07:25.750Z,85.15
2022-12-12T03:10:46.579Z,85.05
2022-12-12T03:13:57.599Z,85.30
2022-12-12T03:17:09.965Z,85.08
2022-12-12T03:20:23.184Z,85.09
2022-12-12T03:23:28.582Z,84.94
2022-12-12T03:26:34.286Z,85.09
2022-12-12T03:30:01.885Z,84.75
2022-12-12T03:33:10.847Z,84.62
2022-12-12T03:36:19.312Z,84.80
2022-12-12T03:39:29.035Z,84.90
2022-12-12T03:42:39.254Z,84.75
2022-12-12T03:46:07.595Z,84.70
2022-12-12T03:49:14.609Z,84.89
2022-12-12T03:52:27.058Z,84.85
2022-12-12T03:55:45.209Z,84.58
2022-12-12T03:58:50.320Z,85.19
2022-12-12T04:02:07.915Z,84.68
2022-12-12T04:05:20.977Z,84.78
2022-12-12T04:08:22.786Z,84.90
2022-12-12T04:11:43.340Z,84.99
2022-12-12T04:14:59.689Z,85.18
2022-12-12T04:18:16.287Z,85.08
2022-12-12T04:22:02.732Z,85.14
2022-12-12T04:25:11.384Z,85.20
2022-12-12T04:28:13.702Z,85.07
2022-12-12T04:31:16.638Z,85.33
2022-12-12T04:34:28.671Z,85.48
2022-12-12T04:37:34.083Z,85.11
2022-12-12T04:40:41.469Z,85.49
2022-12-12T04:43:44.539Z,85.59
2022-12-12T04:46:48.633Z,85.73
2022-12-12T04:49:52.823Z,85.80
2022-12-12T04:52:56.181Z,85.68
2022-12-12T04:56:00.119Z,85.72
2022-12-12T04:59:03.371Z,85.77
2022-12-12T05:02:16.045Z,85.60
2022-12-12T05:05:22.064Z,85.02
2022-12-12T05:08:28.270Z,84.44
2022-12-12T05:11:30.287Z,84.47
2022-12-12T05:14:32.078Z,84.76
2022-12-12T05:17:35.650Z,84.64
2022-12-12T05:20:37.480Z,85.07
2022-12-12T05:23:39.184Z,85.00
2022-12-12T05:26:41.548Z,84.75
2022-12-12T05:29:43.338Z,84.75
2022-12-12T05:32:45.057Z,86.50
2022-12-12T05:35:46.745Z,87.67
2022-12-12T05:38:48.578Z,88.18
2022-12-12T05:41:50.176Z,86.00
2022-12-12T05:44:51.942Z,84.76
2022-12-12T05:47:53.545Z,85.09
2022-12-12T05:50:55.635Z,85.08
2022-12-12T05:53:57.265Z,85.11
2022-12-12T05:56:59.079Z,85.01
2022-12-12T06:00:00.900Z,84.81
2022-12-12T06:03:02.815Z,85.01
2022-12-12T06:06:04.707Z,85.14
2022-12-12T06:09:06.294Z,85.27
2022-12-12T06:12:08.057Z,85.49
2022-12-12T06:15:10.416Z,85.52
2022-12-12T06:18:12.382Z,85.50
2022-12-12T06:21:14.044Z,86.03
2022-12-12T06:24:15.845Z,88.39
2022-12-12T06:27:17.494Z,88.77
2022-12-12T06:30:19.499Z,87.29
2022-12-12T06:33:21.096Z,86.48
2022-12-12T06:36:24.339Z,86.45
2022-12-12T06:39:26.337Z,86.26
2022-12-12T06:42:28.189Z,86.16
2022-12-12T06:45:29.911Z,86.29
2022-12-12T06:48:32.793Z,86.25
2022-12-12T06:51:37.409Z,86.19
2022-12-12T06:54:39.010Z,86.11
2022-12-12T06:57:40.636Z,85.99
2022-12-12T07:00:42.422Z,86.24
2022-12-12T07:03:44.369Z,86.07
2022-12-12T07:06:45.992Z,85.73
2022-12-12T07:09:47.849Z,85.97
2022-12-12T07:12:53.285Z,85.97
2022-12-12T07:15:57.951Z,85.97
2022-12-12T07:18:59.856Z,86.08
2022-12-12T07:22:07.457Z,85.89
2022-12-12T07:25:11.640Z,85.60
2022-12-12T07:28:14.589Z,85.95
2022-12-12T07:31:19.287Z,86.05
2022-12-12T07:34:20.984Z,85.76
2022-12-12T07:37:22.775Z,85.79
2022-12-12T07:40:24.513Z,85.36
2022-12-12T07:43:26.847Z,85.53
2022-12-12T07:46:29.397Z,85.28
2022-12-12T07:49:31.156Z,85.22
2022-12-12T07:52:33.002Z,84.95
2022-12-12T07:55:34.907Z,85.21
2022-12-12T07:58:37.473Z,84.97
2022-12-12T08:01:39.796Z,84.93
2022-12-12T08:04:42.064Z,84.95
2022-12-12T08:07:44.065Z,84.72
2022-12-12T08:10:45.790Z,84.52
2022-12-12T08:13:48.136Z,84.64
2022-12-12T08:16:49.864Z,84.45
2022-12-12T08:19:51.735Z,84.50
2022-12-12T08:22:53.741Z,84.47
2022-12-12T08:25:55.436Z,84.13
2022-12-12T08:28:58.011Z,84.46
2022-12-12T08:31:59.840Z,84.19
2022-12-12T08:35:01.377Z,84.02
2022-12-12T08:38:03.993Z,83.88
2022-12-12T08:41:05.701Z,84.13
2022-12-12T08:44:08.202Z,84.07
2022-12-12T08:47:10.785Z,84.09
2022-12-12T08:50:12.794Z,83.78
2022-12-12T08:53:14.505Z,84.28
2022-12-12T08:56:17.789Z,84.07
2022-12-12T08:59:19.978Z,84.02
2022-12-12T09:02:21.833Z,83.85
2022-12-12T09:05:23.716Z,83.73
2022-12-12T09:08:25.378Z,83.60
2022-12-12T09:11:27.375Z,83.62
2022-12-12T09:14:29.109Z,83.58
2022-12-12T09:17:30.931Z,83.81
2022-12-12T09:20:32.815Z,83.58
2022-12-12T09:23:35.065Z,83.87
2022-12-12T09:26:37.914Z,83.56
2022-12-12T09:29:40.189Z,83.56
2022-12-12T09:32:42.249Z,83.38
2022-12-12T09:35:44.399Z,83.12
2022-12-12T09:38:46.134Z,83.44
2022-12-12T09:41:47.851Z,83.06
2022-12-12T09:44:54.730Z,82.88
2022-12-12T09:48:00.532Z,83.35
2022-12-12T09:51:02.707Z,82.89
2022-12-12T09:54:04.416Z,82.69
2022-12-12T09:57:24.941Z,82.34
2022-12-12T10:00:27.401Z,82.56
2022-12-12T10:03:50.968Z,82.20
2022-12-12T10:07:04.813Z,82.15
2022-12-12T10:10:25.951Z,82.24
2022-12-12T10:13:30.137Z,82.12
2022-12-12T10:16:32.792Z,82.22
2022-12-12T10:19:42.820Z,82.03
2022-12-12T10:22:56.857Z,81.39
2022-12-12T10:26:24.380Z,81.45
2022-12-12T10:29:27.097Z,81.05
2022-12-12T10:32:58.324Z,81.14
2022-12-12T10:36:12.775Z,80.74
2022-12-12T10:39:24.485Z,80.70
2022-12-12T10:42:43.389Z,80.50
2022-12-12T10:45:59.329Z,80.78
2022-12-12T10:49:01.145Z,80.38
2022-12-12T10:52:05.300Z,79.93
2022-12-12T10:55:36.313Z,79.77
2022-12-12T10:58:46.319Z,79.80
2022-12-12T11:02:10.169Z,79.36
2022-12-12T11:05:25.033Z,79.29
2022-12-12T11:08:31.899Z,79.53
2022-12-12T11:11:34.191Z,79.35
2022-12-12T11:14:45.921Z,79.18
2022-12-12T11:17:50.119Z,79.16
2022-12-12T11:21:02.123Z,79.27
2022-12-12T11:24:08.381Z,79.41
2022-12-12T11:27:19.786Z,79.71
2022-12-12T11:30:32.876Z,79.72
2022-12-12T11:33:39.541Z,79.80
2022-12-12T11:36:41.920Z,80.09
2022-12-12T11:39:46.145Z,80.66
2022-12-12T11:42:47.873Z,80.33
2022-12-12T11:45:59.875Z,80.85
2022-12-12T11:49:06.008Z,81.09
2022-12-12T11:52:30.672Z,81.17
2022-12-12T11:55:58.124Z,81.19
2022-12-12T11:59:23.442Z,81.47
2022-12-12T12:02:47.081Z,81.53
2022-12-12T12:06:17.895Z,81.64
2022-12-12T12:09:47.646Z,81.97
2022-12-12T12:13:02.601Z,82.25
2022-12-12T12:16:22.464Z,82.48
2022-12-12T12:19:39.324Z,82.60
2022-12-12T12:23:04.545Z,82.57
2022-12-12T12:26:11.772Z,82.93
2022-12-12T12:29:25.843Z,82.90
2022-12-12T12:32:44.082Z,83.11
2022-12-12T12:36:01.531Z,83.23
2022-12-12T12:39:30.001Z,83.07
2022-12-12T12:42:46.179Z,83.33
2022-12-12T12:46:00.009Z,83.21
2022-12-12T12:49:27.849Z,83.19
2022-12-12T12:53:12.225Z,83.41
2022-12-12T12:56:26.523Z,83.46
2022-12-12T12:59:34.859Z,83.38
2022-12-12T13:03:11.182Z,83.54
2022-12-12T13:06:19.003Z,83.24
2022-12-12T13:09:44.848Z,83.20
2022-12-12T13:12:59.019Z,83.60
2022-12-12T13:16:20.361Z,83.50
2022-12-12T13:19:35.672Z,83.89
2022-12-12T13:22:52.629Z,83.46
2022-12-12T13:25:58.456Z,83.94
2022-12-12T13:29:04.610Z,84.05
2022-12-12T13:32:37.758Z,84.06
2022-12-12T13:35:51.169Z,83.98
2022-12-12T13:38:57.986Z,84.28
2022-12-12T13:42:05.350Z,84.19
2022-12-12T13:45:32.220Z,84.26
2022-12-12T13:48:46.160Z,84.49
2022-12-12T13:51:48.605Z,84.15
2022-12-12T13:54:50.425Z,84.20
2022-12-12T13:58:06.779Z,84.51
2022-12-12T14:01:27.238Z,84.36
2022-12-12T14:04:32.222Z,84.43
2022-12-12T14:07:34.260Z,84.26
2022-12-12T14:10:48.110Z,84.30
2022-12-12T14:13:51.089Z,84.87
2022-12-12T14:16:54.767Z,84.34
2022-12-12T14:19:58.656Z,84.61
2022-12-12T14:23:09.153Z,84.85
2022-12-12T14:26:29.003Z,84.66
2022-12-12T14:29:33.173Z,84.88
2022-12-12T14:32:43.882Z,85.01
2022-12-12T14:35:53.802Z,84.98
2022-12-12T14:39:21.874Z,85.03
2022-12-12T14:43:20.438Z,85.27
2022-12-12T14:45:56.969Z,85.32
2022-12-12T14:49:03.752Z,85.37
2022-12-12T14:52:05.604Z,85.49
2022-12-12T14:55:07.471Z,85.86
2022-12-12T14:58:09.287Z,85.95
2022-12-12T15:01:10.890Z,86.00
2022-12-12T15:04:15.546Z,85.93
2022-12-12T15:07:29.116Z,85.94
2022-12-12T15:10:30.975Z,86.21
2022-12-12T15:13:32.692Z,85.78
2022-12-12T15:16:40.692Z,85.72
2022-12-12T15:19:49.223Z,85.98
2022-12-12T15:22:57.885Z,85.41
2022-12-12T15:25:59.519Z,85.71
2022-12-12T15:29:01.150Z,85.88
2022-12-12T15:32:06.663Z,86.08
2022-12-12T15:35:08.439Z,86.01
2022-12-12T15:38:13.464Z,86.14
2022-12-12T15:41:21.388Z,85.71
2022-12-12T15:44:23.193Z,85.52
2022-12-12T15:47:25.103Z,85.55
2022-12-12T15:50:41.910Z,85.48
2022-12-12T15:53:49.573Z,85.67
2022-12-12T15:56:51.226Z,85.58
2022-12-12T16:00:32.341Z,85.54
2022-12-12T16:03:34.540Z,85.86
2022-12-12T16:06:45.190Z,85.58
2022-12-12T16:10:01.651Z,85.81
2022-12-12T16:13:24.952Z,85.77
2022-12-12T16:16:43.961Z,85.70
2022-12-12T16:20:01.430Z,85.80
2022-12-12T16:23:22.322Z,85.59
2022-12-12T16:26:24.031Z,85.48
2022-12-12T16:29:26.679Z,85.66
2022-12-12T16:32:28.483Z,85.18
2022-12-12T16:35:30.262Z,85.08
2022-12-12T16:38:32.019Z,84.61
2022-12-12T16:41:33.907Z,84.81
2022-12-12T16:44:35.535Z,84.95
2022-12-12T16:47:37.222Z,84.93
2022-12-12T16:50:38.945Z,84.80
2022-12-12T16:53:40.672Z,85.13
2022-12-12T16:56:43.195Z,84.91
2022-12-12T16:59:45.169Z,85.05
2022-12-12T17:02:46.921Z,85.01
2022-12-12T17:05:48.717Z,85.30
2022-12-12T17:08:50.302Z,87.19
2022-12-12T17:11:52.221Z,87.34
2022-12-12T17:14:53.843Z,85.54
2022-12-12T17:17:56.093Z,84.85
2022-12-12T17:20:58.013Z,85.05
2022-12-12T17:23:59.674Z,85.23
2022-12-12T17:27:01.431Z,85.42
2022-12-12T17:30:04.803Z,85.13
2022-12-12T17:33:18.842Z,85.39
2022-12-12T17:36:21.332Z,85.13
2022-12-12T17:39:23.115Z,85.10
2022-12-12T17:42:24.938Z,85.61
2022-12-12T17:45:26.612Z,85.22
2022-12-12T17:48:33.398Z,85.33
2022-12-12T17:51:35.198Z,85.58
2022-12-12T17:54:36.887Z,85.76
2022-12-12T17:57:38.585Z,85.58
2022-12-12T18:00:40.333Z,85.82
2022-12-12T18:03:42.901Z,85.62
2022-12-12T18:06:44.630Z,85.64
2022-12-12T18:09:46.298Z,85.58
2022-12-12T18:12:51.594Z,85.63
2022-12-12T18:15:57.928Z,86.82
2022-12-12T18:19:00.548Z,87.32
2022-12-12T18:22:02.643Z,86.38
2022-12-12T18:25:05.112Z,85.48
2022-12-12T18:28:06.859Z,85.25
2022-12-12T18:31:08.690Z,85.35
2022-12-12T18:34:10.596Z,85.44
2022-12-12T18:37:12.306Z,85.65
2022-12-12T18:40:14.361Z,85.43
2022-12-12T18:43:16.374Z,85.70
2022-12-12T18:46:20.588Z,85.66
2022-12-12T18:49:22.451Z,86.01
2022-12-12T18:52:24.064Z,85.82
2022-12-12T18:55:30.107Z,86.09
2022-12-12T18:58:32.081Z,86.26
2022-12-12T19:01:36.175Z,86.19
2022-12-12T19:04:39.047Z,86.17
2022-12-12T19:07:41.592Z,86.24
2022-12-12T19:10:43.282Z,86.47
2022-12-12T19:13:46.529Z,86.67
2022-12-12T19:16:48.284Z,86.33
2022-12-12T19:19:50.706Z,86.14
2022-12-12T19:22:52.430Z,86.53
2022-12-12T19:25:54.049Z,86.56
2022-12-12T19:28:59.548Z,86.51
2022-12-12T19:32:01.256Z,86.39
2022-12-12T19:35:02.975Z,86.26
2022-12-12T19:38:04.689Z,86.33
2022-12-12T19:41:07.704Z,86.44
2022-12-12T19:44:12.832Z,86.27
2022-12-12T19:47:14.658Z,86.12
2022-12-12T19:50:16.685Z,86.23
2022-12-12T19:53:18.557Z,86.62
2022-12-12T19:56:22.295Z,87.49
2022-12-12T19:59:23.899Z,86.53
2022-12-12T20:02:25.598Z,85.92
2022-12-12T20:05:27.601Z,85.67
2022-12-12T20:08:31.104Z,85.81
2022-12-12T20:11:32.816Z,85.83
2022-12-12T20:14:36.579Z,86.10
2022-12-12T20:17:38.420Z,86.07
2022-12-12T20:20:40.232Z,85.98
2022-12-12T20:23:47.058Z,85.97
2022-12-12T20:26:49.168Z,85.73
2022-12-12T20:29:50.762Z,86.07
2022-12-12T20:32:52.479Z,85.77
2022-12-12T20:35:54.104Z,85.79
2022-12-12T20:38:57.373Z,85.83
2022-12-12T20:41:59.158Z,85.80
2022-12-12T20:45:02.031Z,85.88
2022-12-12T20:48:07.549Z,85.69
2022-12-12T20:51:45.544Z,85.61
2022-12-12T20:54:33.647Z,85.62
2022-12-12T20:57:35.308Z,85.63
2022-12-12T21:00:38.417Z,85.41
2022-12-12T21:03:41.197Z,85.80
2022-12-12T21:06:48.163Z,85.70
2022-12-12T21:09:50.230Z,85.68
2022-12-12T21:12:51.893Z,85.51
2022-12-12T21:15:53.964Z,85.79
2022-12-12T21:18:56.936Z,85.93
2022-12-12T21:21:58.579Z,86.34
2022-12-12T21:25:00.308Z,85.66
2022-12-12T21:28:02.006Z,85.26
2022-12-12T21:31:06.496Z,85.42
2022-12-12T21:34:08.507Z,85.63
2022-12-12T21:37:10.196Z,85.50
2022-12-12T21:40:12.361Z,85.46
2022-12-12T21:43:14.012Z,85.27
2022-12-12T21:46:21.784Z,85.54
2022-12-12T21:49:26.894Z,85.41
2022-12-12T21:52:28.879Z,85.54
2022-12-12T21:55:30.761Z,85.14
2022-12-12T21:58:32.562Z,85.00
2022-12-12T22:01:34.425Z,84.87
2022-12-12T22:04:35.984Z,85.05
2022-12-12T22:07:37.574Z,85.23
2022-12-12T22:10:39.193Z,85.16
2022-12-12T22:13:42.730Z,85.21
2022-12-12T22:16:45.088Z,84.99
2022-12-12T22:19:47.215Z,85.10
2022-12-12T22:22:48.840Z,85.06
2022-12-12T22:25:50.563Z,85.02
2022-12-12T22:28:54.429Z,84.63
2022-12-12T22:31:56.154Z,84.70
2022-12-12T22:34:58.723Z,84.86
2022-12-12T22:38:00.361Z,84.74
2022-12-12T22:41:02.037Z,84.64
2022-12-12T22:44:06.044Z,84.35
2022-12-12T22:47:07.698Z,84.49
2022-12-12T22:50:10.077Z,84.32
2022-12-12T22:53:13.242Z,84.53
2022-12-12T22:56:15.739Z,84.67
2022-12-12T22:59:17.424Z,84.44
2022-12-12T23:02:24.803Z,84.20
2022-12-12T23:05:27.300Z,84.48
2022-12-12T23:08:29.067Z,84.13
2022-12-12T23:11:31.076Z,84.39
2022-12-12T23:14:32.881Z,84.27
2022-12-12T23:17:34.607Z,84.09
2022-12-12T23:20:36.282Z,83.91
2022-12-12T23:23:38.881Z,83.90
2022-12-12T23:26:41.511Z,83.86
2022-12-12T23:29:43.219Z,83.55
2022-12-12T23:32:44.943Z,83.31
2022-12-12T23:35:49.755Z,83.37
2022-12-12T23:38:59.822Z,83.29
2022-12-12T23:42:01.581Z,83.32
2022-12-12T23:45:03.367Z,83.14
2022-12-12T23:48:05.890Z,83.27
2022-12-12T23:51:07.547Z,83.48
2022-12-12T23:54:10.547Z,83.21
2022-12-12T23:57:12.289Z,83.51
